sensor_id;sensor_type;location;lat;lon;timestamp;P1;durP1;ratioP1;P2;durP2;ratioP2
30458;SDS011;74163;50.912;6.918;2024-03-02T00:00:13;4.28;;;3.22;;
30458;SDS011;74163;50.912;6.918;2024-03-02T00:00:48;5.03;;;3.70;;
30458;SDS011;74163;50.912;6.918;2024-03-02T00:01:22;4.78;;;3.60;;
30458;SDS011;74163;50.912;6.918;2024-03-02T00:01:54;5.60;;;3.70;;
30458;SDS011;74163;50.912;6.918;2024-03-02T00:02:26;4.77;;;4.00;;
30458;SDS011;74163;50.912;6.918;2024-03-02T00:02:58;4.90;;;3.90;;
30458;SDS011;74163;50.912;6.918;2024-03-02T00:03:29;4.70;;;3.77;;
30458;SDS011;74163;50.912;6.918;2024-03-02T00:04:02;4.20;;;3.58;;
30458;SDS011;74163;50.912;6.918;2024-03-02T00:04:35;4.47;;;3.67;;
30458;SDS011;74163;50.912;6.918;2024-03-02T00:05:07;4.30;;;3.40;;
30458;SDS011;74163;50.912;6.918;2024-03-02T00:05:41;4.85;;;3.63;;
30458;SDS011;74163;50.912;6.918;2024-03-02T00:06:13;4.75;;;3.72;;
30458;SDS011;74163;50.912;6.918;2024-03-02T00:06:45;5.05;;;3.70;;
30458;SDS011;74163;50.912;6.918;2024-03-02T00:07:17;5.10;;;3.50;;
30458;SDS011;74163;50.912;6.918;2024-03-02T00:07:52;4.50;;;3.63;;
30458;SDS011;74163;50.912;6.918;2024-03-02T00:08:25;4.75;;;3.47;;
30458;SDS011;74163;50.912;6.918;2024-03-02T00:08:57;4.47;;;3.70;;
30458;SDS011;74163;50.912;6.918;2024-03-02T00:09:29;4.28;;;3.53;;
30458;SDS011;74163;50.912;6.918;2024-03-02T00:10:02;5.50;;;3.53;;
30458;SDS011;74163;50.912;6.918;2024-03-02T00:10:40;4.53;;;3.35;;
30458;SDS011;74163;50.912;6.918;2024-03-02T00:11:12;4.97;;;3.85;;
30458;SDS011;74163;50.912;6.918;2024-03-02T00:11:44;6.20;;;3.58;;
30458;SDS011;74163;50.912;6.918;2024-03-02T00:12:16;4.95;;;3.88;;
30458;SDS011;74163;50.912;6.918;2024-03-02T00:12:48;4.35;;;3.70;;
30458;SDS011;74163;50.912;6.918;2024-03-02T00:13:20;4.20;;;3.70;;
30458;SDS011;74163;50.912;6.918;2024-03-02T00:13:52;4.28;;;3.35;;
30458;SDS011;74163;50.912;6.918;2024-03-02T00:14:24;4.65;;;3.50;;
30458;SDS011;74163;50.912;6.918;2024-03-02T00:14:56;5.20;;;3.55;;
30458;SDS011;74163;50.912;6.918;2024-03-02T00:15:33;4.75;;;3.47;;
30458;SDS011;74163;50.912;6.918;2024-03-02T00:16:12;4.60;;;3.50;;
30458;SDS011;74163;50.912;6.918;2024-03-02T00:16:45;4.78;;;3.58;;
30458;SDS011;74163;50.912;6.918;2024-03-02T00:17:17;5.25;;;3.45;;
30458;SDS011;74163;50.912;6.918;2024-03-02T00:17:55;4.60;;;3.33;;
30458;SDS011;74163;50.912;6.918;2024-03-02T00:18:30;4.80;;;3.70;;
30458;SDS011;74163;50.912;6.918;2024-03-02T00:19:03;5.10;;;3.53;;
30458;SDS011;74163;50.912;6.918;2024-03-02T00:19:38;5.40;;;4.03;;
30458;SDS011;74163;50.912;6.918;2024-03-02T00:20:10;5.20;;;3.30;;
30458;SDS011;74163;50.912;6.918;2024-03-02T00:20:46;4.55;;;3.53;;
30458;SDS011;74163;50.912;6.918;2024-03-02T00:21:18;4.28;;;3.33;;
30458;SDS011;74163;50.912;6.918;2024-03-02T00:21:50;5.00;;;3.42;;
30458;SDS011;74163;50.912;6.918;2024-03-02T00:22:22;4.72;;;3.38;;
30458;SDS011;74163;50.912;6.918;2024-03-02T00:22:55;4.68;;;3.50;;
30458;SDS011;74163;50.912;6.918;2024-03-02T00:23:31;4.55;;;3.30;;
30458;SDS011;74163;50.912;6.918;2024-03-02T00:24:06;4.72;;;3.90;;
30458;SDS011;74163;50.912;6.918;2024-03-02T00:24:51;4.32;;;3.17;;
30458;SDS011;74163;50.912;6.918;2024-03-02T00:25:23;5.40;;;3.55;;
30458;SDS011;74163;50.912;6.918;2024-03-02T00:25:54;4.80;;;3.58;;
30458;SDS011;74163;50.912;6.918;2024-03-02T00:26:26;5.25;;;3.47;;
30458;SDS011;74163;50.912;6.918;2024-03-02T00:26:58;4.13;;;3.42;;
30458;SDS011;74163;50.912;6.918;2024-03-02T00:27:30;5.25;;;3.53;;
30458;SDS011;74163;50.912;6.918;2024-03-02T00:28:02;4.60;;;3.45;;
30458;SDS011;74163;50.912;6.918;2024-03-02T00:28:35;4.65;;;3.45;;
30458;SDS011;74163;50.912;6.918;2024-03-02T00:29:07;4.40;;;3.35;;
30458;SDS011;74163;50.912;6.918;2024-03-02T00:29:39;5.03;;;3.30;;
30458;SDS011;74163;50.912;6.918;2024-03-02T00:30:13;4.68;;;3.20;;
30458;SDS011;74163;50.912;6.918;2024-03-02T00:31:13;4.00;;;3.28;;
30458;SDS011;74163;50.912;6.918;2024-03-02T00:31:47;4.47;;;3.28;;
30458;SDS011;74163;50.912;6.918;2024-03-02T00:32:22;4.97;;;3.30;;
30458;SDS011;74163;50.912;6.918;2024-03-02T00:32:53;5.43;;;3.50;;
30458;SDS011;74163;50.912;6.918;2024-03-02T00:33:30;4.90;;;3.25;;
30458;SDS011;74163;50.912;6.918;2024-03-02T00:34:04;4.15;;;3.17;;
30458;SDS011;74163;50.912;6.918;2024-03-02T00:34:37;5.53;;;3.30;;
30458;SDS011;74163;50.912;6.918;2024-03-02T00:35:09;4.65;;;3.47;;
30458;SDS011;74163;50.912;6.918;2024-03-02T00:35:43;3.90;;;3.22;;
30458;SDS011;74163;50.912;6.918;2024-03-02T00:36:16;4.63;;;3.20;;
30458;SDS011;74163;50.912;6.918;2024-03-02T00:36:56;4.70;;;3.00;;
30458;SDS011;74163;50.912;6.918;2024-03-02T00:37:32;4.55;;;3.40;;
30458;SDS011;74163;50.912;6.918;2024-03-02T00:38:04;4.53;;;3.67;;
30458;SDS011;74163;50.912;6.918;2024-03-02T00:38:41;4.60;;;3.42;;
30458;SDS011;74163;50.912;6.918;2024-03-02T00:39:15;4.68;;;3.78;;
30458;SDS011;74163;50.912;6.918;2024-03-02T00:39:48;4.80;;;3.70;;
30458;SDS011;74163;50.912;6.918;2024-03-02T00:40:20;4.60;;;3.50;;
30458;SDS011;74163;50.912;6.918;2024-03-02T00:40:52;4.82;;;3.50;;
30458;SDS011;74163;50.912;6.918;2024-03-02T00:41:24;4.22;;;3.50;;
30458;SDS011;74163;50.912;6.918;2024-03-02T00:41:58;5.07;;;3.83;;
30458;SDS011;74163;50.912;6.918;2024-03-02T00:42:30;4.70;;;3.55;;
30458;SDS011;74163;50.912;6.918;2024-03-02T00:43:02;3.97;;;3.30;;
30458;SDS011;74163;50.912;6.918;2024-03-02T00:43:45;4.63;;;3.50;;
30458;SDS011;74163;50.912;6.918;2024-03-02T00:44:19;4.20;;;3.42;;
30458;SDS011;74163;50.912;6.918;2024-03-02T00:44:56;5.22;;;3.38;;
30458;SDS011;74163;50.912;6.918;2024-03-02T00:45:28;3.85;;;3.15;;
30458;SDS011;74163;50.912;6.918;2024-03-02T00:45:59;4.97;;;3.47;;
30458;SDS011;74163;50.912;6.918;2024-03-02T00:46:32;4.72;;;3.58;;
30458;SDS011;74163;50.912;6.918;2024-03-02T00:47:06;4.47;;;3.30;;
30458;SDS011;74163;50.912;6.918;2024-03-02T00:47:38;4.95;;;3.40;;
30458;SDS011;74163;50.912;6.918;2024-03-02T00:48:11;4.78;;;3.65;;
30458;SDS011;74163;50.912;6.918;2024-03-02T00:48:55;4.47;;;3.35;;
30458;SDS011;74163;50.912;6.918;2024-03-02T00:49:27;4.20;;;3.38;;
30458;SDS011;74163;50.912;6.918;2024-03-02T00:50:00;5.43;;;3.65;;
30458;SDS011;74163;50.912;6.918;2024-03-02T00:50:34;5.37;;;3.40;;
30458;SDS011;74163;50.912;6.918;2024-03-02T00:51:06;4.60;;;3.28;;
30458;SDS011;74163;50.912;6.918;2024-03-02T00:51:39;4.30;;;3.33;;
30458;SDS011;74163;50.912;6.918;2024-03-02T00:52:17;4.15;;;2.88;;
30458;SDS011;74163;50.912;6.918;2024-03-02T00:52:48;4.93;;;3.60;;
30458;SDS011;74163;50.912;6.918;2024-03-02T00:53:21;4.65;;;3.72;;
30458;SDS011;74163;50.912;6.918;2024-03-02T00:53:55;3.97;;;3.22;;
30458;SDS011;74163;50.912;6.918;2024-03-02T00:54:29;4.30;;;3.00;;
30458;SDS011;74163;50.912;6.918;2024-03-02T00:55:01;4.15;;;3.20;;
30458;SDS011;74163;50.912;6.918;2024-03-02T00:55:35;4.57;;;3.25;;
30458;SDS011;74163;50.912;6.918;2024-03-02T00:56:09;4.53;;;3.50;;
30458;SDS011;74163;50.912;6.918;2024-03-02T00:56:41;4.18;;;3.25;;
30458;SDS011;74163;50.912;6.918;2024-03-02T00:57:13;4.10;;;3.67;;
30458;SDS011;74163;50.912;6.918;2024-03-02T00:57:46;4.07;;;3.08;;
30458;SDS011;74163;50.912;6.918;2024-03-02T00:58:18;4.45;;;3.03;;
30458;SDS011;74163;50.912;6.918;2024-03-02T00:58:50;4.25;;;3.17;;
30458;SDS011;74163;50.912;6.918;2024-03-02T00:59:22;4.40;;;3.08;;
30458;SDS011;74163;50.912;6.918;2024-03-02T00:59:54;5.00;;;3.50;;
30458;SDS011;74163;50.912;6.918;2024-03-02T01:00:26;3.90;;;3.10;;
30458;SDS011;74163;50.912;6.918;2024-03-02T01:00:57;4.70;;;3.13;;
30458;SDS011;74163;50.912;6.918;2024-03-02T01:01:29;5.20;;;3.30;;
30458;SDS011;74163;50.912;6.918;2024-03-02T01:02:01;4.40;;;3.60;;
30458;SDS011;74163;50.912;6.918;2024-03-02T01:02:34;4.30;;;3.20;;
30458;SDS011;74163;50.912;6.918;2024-03-02T01:03:06;5.18;;;3.38;;
30458;SDS011;74163;50.912;6.918;2024-03-02T01:03:38;3.80;;;3.15;;
30458;SDS011;74163;50.912;6.918;2024-03-02T01:04:10;4.47;;;3.55;;
30458;SDS011;74163;50.912;6.918;2024-03-02T01:04:42;3.80;;;3.38;;
30458;SDS011;74163;50.912;6.918;2024-03-02T01:05:14;3.78;;;3.00;;
30458;SDS011;74163;50.912;6.918;2024-03-02T01:05:46;4.13;;;3.53;;
30458;SDS011;74163;50.912;6.918;2024-03-02T01:06:17;4.72;;;3.22;;
30458;SDS011;74163;50.912;6.918;2024-03-02T01:06:50;4.97;;;3.40;;
30458;SDS011;74163;50.912;6.918;2024-03-02T01:07:21;4.30;;;3.55;;
30458;SDS011;74163;50.912;6.918;2024-03-02T01:07:53;4.50;;;3.50;;
30458;SDS011;74163;50.912;6.918;2024-03-02T01:08:25;4.60;;;3.50;;
30458;SDS011;74163;50.912;6.918;2024-03-02T01:08:57;4.22;;;3.67;;
30458;SDS011;74163;50.912;6.918;2024-03-02T01:09:29;4.25;;;3.40;;
30458;SDS011;74163;50.912;6.918;2024-03-02T01:10:01;3.95;;;3.20;;
30458;SDS011;74163;50.912;6.918;2024-03-02T01:10:33;5.35;;;3.30;;
30458;SDS011;74163;50.912;6.918;2024-03-02T01:11:05;4.78;;;3.45;;
30458;SDS011;74163;50.912;6.918;2024-03-02T01:11:37;3.97;;;3.33;;
30458;SDS011;74163;50.912;6.918;2024-03-02T01:12:08;4.68;;;3.22;;
30458;SDS011;74163;50.912;6.918;2024-03-02T01:12:40;4.68;;;3.30;;
30458;SDS011;74163;50.912;6.918;2024-03-02T01:13:12;4.95;;;3.47;;
30458;SDS011;74163;50.912;6.918;2024-03-02T01:13:44;4.32;;;3.28;;
30458;SDS011;74163;50.912;6.918;2024-03-02T01:14:19;4.30;;;3.05;;
30458;SDS011;74163;50.912;6.918;2024-03-02T01:14:51;4.70;;;3.53;;
30458;SDS011;74163;50.912;6.918;2024-03-02T01:15:23;4.10;;;3.10;;
30458;SDS011;74163;50.912;6.918;2024-03-02T01:15:55;4.55;;;3.50;;
30458;SDS011;74163;50.912;6.918;2024-03-02T01:16:27;4.43;;;3.45;;
30458;SDS011;74163;50.912;6.918;2024-03-02T01:16:59;3.95;;;3.28;;
30458;SDS011;74163;50.912;6.918;2024-03-02T01:17:39;4.57;;;3.17;;
30458;SDS011;74163;50.912;6.918;2024-03-02T01:18:10;4.10;;;3.30;;
30458;SDS011;74163;50.912;6.918;2024-03-02T01:18:43;5.07;;;3.50;;
30458;SDS011;74163;50.912;6.918;2024-03-02T01:19:15;4.10;;;3.20;;
30458;SDS011;74163;50.912;6.918;2024-03-02T01:19:47;4.30;;;3.33;;
30458;SDS011;74163;50.912;6.918;2024-03-02T01:20:19;4.30;;;3.40;;
30458;SDS011;74163;50.912;6.918;2024-03-02T01:20:51;4.70;;;3.40;;
30458;SDS011;74163;50.912;6.918;2024-03-02T01:21:22;5.07;;;3.50;;
30458;SDS011;74163;50.912;6.918;2024-03-02T01:21:54;4.10;;;3.40;;
30458;SDS011;74163;50.912;6.918;2024-03-02T01:22:26;3.95;;;2.95;;
30458;SDS011;74163;50.912;6.918;2024-03-02T01:23:01;3.95;;;3.25;;
30458;SDS011;74163;50.912;6.918;2024-03-02T01:23:33;4.05;;;3.40;;
30458;SDS011;74163;50.912;6.918;2024-03-02T01:24:05;4.90;;;3.22;;
30458;SDS011;74163;50.912;6.918;2024-03-02T01:24:36;4.57;;;3.25;;
30458;SDS011;74163;50.912;6.918;2024-03-02T01:25:08;4.47;;;3.80;;
30458;SDS011;74163;50.912;6.918;2024-03-02T01:25:40;4.87;;;3.60;;
30458;SDS011;74163;50.912;6.918;2024-03-02T01:26:12;4.43;;;3.38;;
30458;SDS011;74163;50.912;6.918;2024-03-02T01:26:44;4.18;;;3.35;;
30458;SDS011;74163;50.912;6.918;2024-03-02T01:27:16;4.40;;;3.25;;
30458;SDS011;74163;50.912;6.918;2024-03-02T01:27:48;4.78;;;3.65;;
30458;SDS011;74163;50.912;6.918;2024-03-02T01:28:23;4.65;;;3.55;;
30458;SDS011;74163;50.912;6.918;2024-03-02T01:28:55;4.95;;;3.50;;
30458;SDS011;74163;50.912;6.918;2024-03-02T01:29:27;3.88;;;3.33;;
30458;SDS011;74163;50.912;6.918;2024-03-02T01:29:59;4.13;;;3.30;;
30458;SDS011;74163;50.912;6.918;2024-03-02T01:30:31;4.88;;;3.40;;
30458;SDS011;74163;50.912;6.918;2024-03-02T01:31:02;4.38;;;3.55;;
30458;SDS011;74163;50.912;6.918;2024-03-02T01:31:34;5.00;;;3.53;;
30458;SDS011;74163;50.912;6.918;2024-03-02T01:32:06;5.32;;;3.63;;
30458;SDS011;74163;50.912;6.918;2024-03-02T01:32:39;4.60;;;3.28;;
30458;SDS011;74163;50.912;6.918;2024-03-02T01:33:11;4.70;;;3.60;;
30458;SDS011;74163;50.912;6.918;2024-03-02T01:33:43;4.70;;;3.40;;
30458;SDS011;74163;50.912;6.918;2024-03-02T01:34:15;4.68;;;3.60;;
30458;SDS011;74163;50.912;6.918;2024-03-02T01:34:47;4.00;;;3.35;;
30458;SDS011;74163;50.912;6.918;2024-03-02T01:35:19;4.18;;;3.13;;
30458;SDS011;74163;50.912;6.918;2024-03-02T01:35:50;4.78;;;3.58;;
30458;SDS011;74163;50.912;6.918;2024-03-02T01:36:22;4.22;;;3.10;;
30458;SDS011;74163;50.912;6.918;2024-03-02T01:36:54;4.10;;;3.10;;
30458;SDS011;74163;50.912;6.918;2024-03-02T01:37:26;4.60;;;3.08;;
30458;SDS011;74163;50.912;6.918;2024-03-02T01:37:58;3.47;;;2.90;;
30458;SDS011;74163;50.912;6.918;2024-03-02T01:38:29;4.60;;;3.50;;
30458;SDS011;74163;50.912;6.918;2024-03-02T01:39:01;3.45;;;3.08;;
30458;SDS011;74163;50.912;6.918;2024-03-02T01:39:33;5.07;;;3.33;;
30458;SDS011;74163;50.912;6.918;2024-03-02T01:40:08;4.60;;;3.38;;
30458;SDS011;74163;50.912;6.918;2024-03-02T01:40:41;4.10;;;2.95;;
30458;SDS011;74163;50.912;6.918;2024-03-02T01:41:13;4.05;;;3.00;;
30458;SDS011;74163;50.912;6.918;2024-03-02T01:41:45;4.00;;;3.25;;
30458;SDS011;74163;50.912;6.918;2024-03-02T01:42:17;4.40;;;3.17;;
30458;SDS011;74163;50.912;6.918;2024-03-02T01:42:49;5.47;;;3.50;;
30458;SDS011;74163;50.912;6.918;2024-03-02T01:43:20;4.50;;;3.17;;
30458;SDS011;74163;50.912;6.918;2024-03-02T01:43:52;4.65;;;3.05;;
30458;SDS011;74163;50.912;6.918;2024-03-02T01:44:24;4.20;;;3.00;;
30458;SDS011;74163;50.912;6.918;2024-03-02T01:44:56;3.90;;;3.25;;
30458;SDS011;74163;50.912;6.918;2024-03-02T01:45:28;4.80;;;3.20;;
30458;SDS011;74163;50.912;6.918;2024-03-02T01:46:00;4.30;;;3.17;;
30458;SDS011;74163;50.912;6.918;2024-03-02T01:46:32;5.80;;;3.05;;
30458;SDS011;74163;50.912;6.918;2024-03-02T01:47:04;4.20;;;2.90;;
30458;SDS011;74163;50.912;6.918;2024-03-02T01:47:35;4.63;;;3.28;;
30458;SDS011;74163;50.912;6.918;2024-03-02T01:48:09;3.60;;;2.85;;
30458;SDS011;74163;50.912;6.918;2024-03-02T01:48:41;5.27;;;3.40;;
30458;SDS011;74163;50.912;6.918;2024-03-02T01:49:12;4.55;;;3.25;;
30458;SDS011;74163;50.912;6.918;2024-03-02T01:49:44;4.43;;;2.95;;
30458;SDS011;74163;50.912;6.918;2024-03-02T01:50:16;4.38;;;3.17;;
30458;SDS011;74163;50.912;6.918;2024-03-02T01:50:56;4.93;;;2.97;;
30458;SDS011;74163;50.912;6.918;2024-03-02T01:51:28;4.90;;;3.35;;
30458;SDS011;74163;50.912;6.918;2024-03-02T01:52:00;4.88;;;3.08;;
30458;SDS011;74163;50.912;6.918;2024-03-02T01:52:33;4.50;;;3.53;;
30458;SDS011;74163;50.912;6.918;2024-03-02T01:53:04;4.03;;;3.17;;
30458;SDS011;74163;50.912;6.918;2024-03-02T01:53:36;4.15;;;3.22;;
30458;SDS011;74163;50.912;6.918;2024-03-02T01:54:08;3.83;;;2.75;;
30458;SDS011;74163;50.912;6.918;2024-03-02T01:54:40;4.47;;;3.40;;
30458;SDS011;74163;50.912;6.918;2024-03-02T01:55:12;5.00;;;3.10;;
30458;SDS011;74163;50.912;6.918;2024-03-02T01:55:44;4.68;;;3.22;;
30458;SDS011;74163;50.912;6.918;2024-03-02T01:56:16;4.40;;;3.08;;
30458;SDS011;74163;50.912;6.918;2024-03-02T01:56:48;3.97;;;3.08;;
30458;SDS011;74163;50.912;6.918;2024-03-02T01:57:20;4.05;;;3.10;;
30458;SDS011;74163;50.912;6.918;2024-03-02T01:57:52;4.63;;;2.83;;
30458;SDS011;74163;50.912;6.918;2024-03-02T01:58:24;4.68;;;3.05;;
30458;SDS011;74163;50.912;6.918;2024-03-02T01:58:55;3.47;;;2.78;;
30458;SDS011;74163;50.912;6.918;2024-03-02T01:59:27;3.95;;;2.97;;
30458;SDS011;74163;50.912;6.918;2024-03-02T01:59:59;4.30;;;3.03;;
30458;SDS011;74163;50.912;6.918;2024-03-02T02:00:42;4.28;;;2.83;;
30458;SDS011;74163;50.912;6.918;2024-03-02T02:01:13;4.07;;;3.20;;
30458;SDS011;74163;50.912;6.918;2024-03-02T02:01:45;4.25;;;3.30;;
30458;SDS011;74163;50.912;6.918;2024-03-02T02:02:17;4.50;;;3.40;;
30458;SDS011;74163;50.912;6.918;2024-03-02T02:02:50;3.88;;;3.00;;
30458;SDS011;74163;50.912;6.918;2024-03-02T02:03:24;4.30;;;2.97;;
30458;SDS011;74163;50.912;6.918;2024-03-02T02:03:55;4.13;;;3.20;;
30458;SDS011;74163;50.912;6.918;2024-03-02T02:04:27;3.90;;;3.20;;
30458;SDS011;74163;50.912;6.918;2024-03-02T02:04:59;4.18;;;3.05;;
30458;SDS011;74163;50.912;6.918;2024-03-02T02:05:31;4.40;;;3.08;;
30458;SDS011;74163;50.912;6.918;2024-03-02T02:06:03;3.90;;;2.88;;
30458;SDS011;74163;50.912;6.918;2024-03-02T02:06:35;3.63;;;2.90;;
30458;SDS011;74163;50.912;6.918;2024-03-02T02:07:07;3.60;;;2.67;;
30458;SDS011;74163;50.912;6.918;2024-03-02T02:07:39;4.57;;;3.13;;
30458;SDS011;74163;50.912;6.918;2024-03-02T02:08:11;4.50;;;3.28;;
30458;SDS011;74163;50.912;6.918;2024-03-02T02:08:43;5.45;;;3.13;;
30458;SDS011;74163;50.912;6.918;2024-03-02T02:09:15;4.30;;;2.90;;
30458;SDS011;74163;50.912;6.918;2024-03-02T02:09:47;4.60;;;2.92;;
30458;SDS011;74163;50.912;6.918;2024-03-02T02:10:19;3.50;;;2.88;;
30458;SDS011;74163;50.912;6.918;2024-03-02T02:10:51;4.28;;;3.20;;
30458;SDS011;74163;50.912;6.918;2024-03-02T02:11:24;4.68;;;3.05;;
30458;SDS011;74163;50.912;6.918;2024-03-02T02:11:56;4.15;;;3.00;;
30458;SDS011;74163;50.912;6.918;2024-03-02T02:12:28;4.80;;;3.10;;
30458;SDS011;74163;50.912;6.918;2024-03-02T02:13:00;4.03;;;2.85;;
30458;SDS011;74163;50.912;6.918;2024-03-02T02:13:32;4.43;;;3.10;;
30458;SDS011;74163;50.912;6.918;2024-03-02T02:14:04;3.58;;;2.80;;
30458;SDS011;74163;50.912;6.918;2024-03-02T02:14:37;3.80;;;2.78;;
30458;SDS011;74163;50.912;6.918;2024-03-02T02:15:24;4.10;;;2.88;;
30458;SDS011;74163;50.912;6.918;2024-03-02T02:16:03;3.67;;;2.83;;
30458;SDS011;74163;50.912;6.918;2024-03-02T02:16:36;3.67;;;2.83;;
30458;SDS011;74163;50.912;6.918;2024-03-02T02:17:08;4.28;;;2.80;;
30458;SDS011;74163;50.912;6.918;2024-03-02T02:17:40;4.82;;;3.30;;
30458;SDS011;74163;50.912;6.918;2024-03-02T02:18:12;4.47;;;3.00;;
30458;SDS011;74163;50.912;6.918;2024-03-02T02:18:45;3.83;;;2.72;;
30458;SDS011;74163;50.912;6.918;2024-03-02T02:19:17;4.57;;;3.13;;
30458;SDS011;74163;50.912;6.918;2024-03-02T02:19:49;4.55;;;2.92;;
30458;SDS011;74163;50.912;6.918;2024-03-02T02:20:20;3.85;;;3.00;;
30458;SDS011;74163;50.912;6.918;2024-03-02T02:20:52;4.30;;;2.97;;
30458;SDS011;74163;50.912;6.918;2024-03-02T02:21:25;4.25;;;3.00;;
30458;SDS011;74163;50.912;6.918;2024-03-02T02:21:57;3.90;;;3.10;;
30458;SDS011;74163;50.912;6.918;2024-03-02T02:22:29;4.57;;;3.03;;
30458;SDS011;74163;50.912;6.918;2024-03-02T02:23:01;5.07;;;3.10;;
30458;SDS011;74163;50.912;6.918;2024-03-02T02:23:34;4.10;;;3.08;;
30458;SDS011;74163;50.912;6.918;2024-03-02T02:24:06;4.32;;;3.17;;
30458;SDS011;74163;50.912;6.918;2024-03-02T02:24:39;4.65;;;3.20;;
30458;SDS011;74163;50.912;6.918;2024-03-02T02:25:11;4.45;;;2.90;;
30458;SDS011;74163;50.912;6.918;2024-03-02T02:25:43;3.95;;;2.92;;
30458;SDS011;74163;50.912;6.918;2024-03-02T02:26:15;5.22;;;2.97;;
30458;SDS011;74163;50.912;6.918;2024-03-02T02:26:47;4.18;;;3.28;;
30458;SDS011;74163;50.912;6.918;2024-03-02T02:27:18;3.53;;;3.13;;
30458;SDS011;74163;50.912;6.918;2024-03-02T02:27:50;4.40;;;3.20;;
30458;SDS011;74163;50.912;6.918;2024-03-02T02:28:22;4.32;;;2.83;;
30458;SDS011;74163;50.912;6.918;2024-03-02T02:28:54;4.80;;;3.00;;
30458;SDS011;74163;50.912;6.918;2024-03-02T02:29:26;4.30;;;2.90;;
30458;SDS011;74163;50.912;6.918;2024-03-02T02:29:58;5.20;;;3.35;;
30458;SDS011;74163;50.912;6.918;2024-03-02T02:30:31;3.67;;;2.95;;
30458;SDS011;74163;50.912;6.918;2024-03-02T02:31:03;4.20;;;2.90;;
30458;SDS011;74163;50.912;6.918;2024-03-02T02:31:38;4.15;;;2.83;;
30458;SDS011;74163;50.912;6.918;2024-03-02T02:32:10;4.10;;;2.97;;
30458;SDS011;74163;50.912;6.918;2024-03-02T02:32:42;4.05;;;3.13;;
30458;SDS011;74163;50.912;6.918;2024-03-02T02:33:14;4.00;;;2.95;;
30458;SDS011;74163;50.912;6.918;2024-03-02T02:33:46;4.00;;;2.88;;
30458;SDS011;74163;50.912;6.918;2024-03-02T02:34:18;4.25;;;2.88;;
30458;SDS011;74163;50.912;6.918;2024-03-02T02:34:51;3.78;;;2.80;;
30458;SDS011;74163;50.912;6.918;2024-03-02T02:35:23;3.97;;;3.20;;
30458;SDS011;74163;50.912;6.918;2024-03-02T02:35:55;4.30;;;2.70;;
30458;SDS011;74163;50.912;6.918;2024-03-02T02:36:28;4.88;;;3.10;;
30458;SDS011;74163;50.912;6.918;2024-03-02T02:37:00;3.92;;;2.90;;
30458;SDS011;74163;50.912;6.918;2024-03-02T02:37:32;4.88;;;3.08;;
30458;SDS011;74163;50.912;6.918;2024-03-02T02:38:04;4.07;;;2.80;;
30458;SDS011;74163;50.912;6.918;2024-03-02T02:38:38;3.92;;;2.88;;
30458;SDS011;74163;50.912;6.918;2024-03-02T02:39:15;3.78;;;2.70;;
30458;SDS011;74163;50.912;6.918;2024-03-02T02:39:48;4.75;;;2.90;;
30458;SDS011;74163;50.912;6.918;2024-03-02T02:40:20;4.18;;;3.20;;
30458;SDS011;74163;50.912;6.918;2024-03-02T02:40:52;4.20;;;3.30;;
30458;SDS011;74163;50.912;6.918;2024-03-02T02:41:24;3.42;;;2.72;;
30458;SDS011;74163;50.912;6.918;2024-03-02T02:41:56;5.10;;;3.20;;
30458;SDS011;74163;50.912;6.918;2024-03-02T02:42:28;5.13;;;3.15;;
30458;SDS011;74163;50.912;6.918;2024-03-02T02:43:00;4.45;;;2.75;;
30458;SDS011;74163;50.912;6.918;2024-03-02T02:43:31;3.83;;;2.90;;
30458;SDS011;74163;50.912;6.918;2024-03-02T02:44:03;4.55;;;3.08;;
30458;SDS011;74163;50.912;6.918;2024-03-02T02:44:36;4.13;;;2.90;;
30458;SDS011;74163;50.912;6.918;2024-03-02T02:45:07;3.65;;;3.03;;
30458;SDS011;74163;50.912;6.918;2024-03-02T02:45:39;4.22;;;3.03;;
30458;SDS011;74163;50.912;6.918;2024-03-02T02:46:11;4.40;;;3.08;;
30458;SDS011;74163;50.912;6.918;2024-03-02T02:46:43;3.97;;;3.35;;
30458;SDS011;74163;50.912;6.918;2024-03-02T02:47:15;3.90;;;2.80;;
30458;SDS011;74163;50.912;6.918;2024-03-02T02:47:46;4.30;;;2.97;;
30458;SDS011;74163;50.912;6.918;2024-03-02T02:48:18;3.60;;;2.88;;
30458;SDS011;74163;50.912;6.918;2024-03-02T02:48:50;4.80;;;3.00;;
30458;SDS011;74163;50.912;6.918;2024-03-02T02:49:22;4.25;;;2.92;;
30458;SDS011;74163;50.912;6.918;2024-03-02T02:49:54;3.72;;;2.75;;
30458;SDS011;74163;50.912;6.918;2024-03-02T02:50:25;4.15;;;2.90;;
30458;SDS011;74163;50.912;6.918;2024-03-02T02:50:57;3.60;;;2.80;;
30458;SDS011;74163;50.912;6.918;2024-03-02T02:51:30;4.68;;;2.60;;
30458;SDS011;74163;50.912;6.918;2024-03-02T02:52:02;4.55;;;3.17;;
30458;SDS011;74163;50.912;6.918;2024-03-02T02:52:34;4.75;;;3.10;;
30458;SDS011;74163;50.912;6.918;2024-03-02T02:53:08;4.00;;;2.72;;
30458;SDS011;74163;50.912;6.918;2024-03-02T02:53:40;3.85;;;2.90;;
30458;SDS011;74163;50.912;6.918;2024-03-02T02:54:11;3.67;;;2.78;;
30458;SDS011;74163;50.912;6.918;2024-03-02T02:54:43;4.40;;;3.10;;
30458;SDS011;74163;50.912;6.918;2024-03-02T02:55:15;3.53;;;3.08;;
30458;SDS011;74163;50.912;6.918;2024-03-02T02:55:47;5.18;;;3.10;;
30458;SDS011;74163;50.912;6.918;2024-03-02T02:56:19;3.72;;;2.78;;
30458;SDS011;74163;50.912;6.918;2024-03-02T02:56:51;4.53;;;2.85;;
30458;SDS011;74163;50.912;6.918;2024-03-02T02:57:23;4.15;;;2.78;;
30458;SDS011;74163;50.912;6.918;2024-03-02T02:57:54;4.13;;;2.92;;
30458;SDS011;74163;50.912;6.918;2024-03-02T02:58:26;4.85;;;2.92;;
30458;SDS011;74163;50.912;6.918;2024-03-02T02:58:58;4.50;;;3.20;;
30458;SDS011;74163;50.912;6.918;2024-03-02T02:59:30;3.95;;;2.88;;
30458;SDS011;74163;50.912;6.918;2024-03-02T03:00:02;3.83;;;2.75;;
30458;SDS011;74163;50.912;6.918;2024-03-02T03:00:36;3.92;;;2.67;;
30458;SDS011;74163;50.912;6.918;2024-03-02T03:01:08;4.30;;;3.17;;
30458;SDS011;74163;50.912;6.918;2024-03-02T03:01:40;3.63;;;2.83;;
30458;SDS011;74163;50.912;6.918;2024-03-02T03:02:12;3.47;;;2.63;;
30458;SDS011;74163;50.912;6.918;2024-03-02T03:02:44;3.67;;;2.88;;
30458;SDS011;74163;50.912;6.918;2024-03-02T03:03:17;4.20;;;2.95;;
30458;SDS011;74163;50.912;6.918;2024-03-02T03:03:49;5.03;;;3.05;;
30458;SDS011;74163;50.912;6.918;2024-03-02T03:04:21;5.38;;;2.97;;
30458;SDS011;74163;50.912;6.918;2024-03-02T03:04:53;3.90;;;2.90;;
30458;SDS011;74163;50.912;6.918;2024-03-02T03:05:25;4.13;;;3.05;;
30458;SDS011;74163;50.912;6.918;2024-03-02T03:05:56;4.00;;;2.85;;
30458;SDS011;74163;50.912;6.918;2024-03-02T03:06:28;4.82;;;2.95;;
30458;SDS011;74163;50.912;6.918;2024-03-02T03:07:01;4.40;;;2.80;;
30458;SDS011;74163;50.912;6.918;2024-03-02T03:07:33;4.07;;;2.97;;
30458;SDS011;74163;50.912;6.918;2024-03-02T03:08:05;5.18;;;2.95;;
30458;SDS011;74163;50.912;6.918;2024-03-02T03:08:37;4.80;;;3.25;;
30458;SDS011;74163;50.912;6.918;2024-03-02T03:09:09;4.03;;;3.05;;
30458;SDS011;74163;50.912;6.918;2024-03-02T03:09:41;3.92;;;2.95;;
30458;SDS011;74163;50.912;6.918;2024-03-02T03:10:13;4.20;;;3.08;;
30458;SDS011;74163;50.912;6.918;2024-03-02T03:10:46;4.78;;;2.85;;
30458;SDS011;74163;50.912;6.918;2024-03-02T03:11:18;5.18;;;2.80;;
30458;SDS011;74163;50.912;6.918;2024-03-02T03:11:49;4.15;;;2.50;;
30458;SDS011;74163;50.912;6.918;2024-03-02T03:12:21;3.92;;;2.63;;
30458;SDS011;74163;50.912;6.918;2024-03-02T03:12:53;4.05;;;2.90;;
30458;SDS011;74163;50.912;6.918;2024-03-02T03:13:25;4.68;;;3.20;;
30458;SDS011;74163;50.912;6.918;2024-03-02T03:13:57;4.00;;;2.83;;
30458;SDS011;74163;50.912;6.918;2024-03-02T03:14:28;4.68;;;2.90;;
30458;SDS011;74163;50.912;6.918;2024-03-02T03:15:00;3.50;;;2.60;;
30458;SDS011;74163;50.912;6.918;2024-03-02T03:15:32;4.43;;;3.05;;
30458;SDS011;74163;50.912;6.918;2024-03-02T03:16:06;4.05;;;2.72;;
30458;SDS011;74163;50.912;6.918;2024-03-02T03:16:38;4.45;;;3.00;;
30458;SDS011;74163;50.912;6.918;2024-03-02T03:17:09;3.60;;;2.95;;